createdAt,value
2022-10-14T00:01:52.146Z,15.47
2022-10-14T00:04:20.553Z,15.47
2022-10-14T00:06:48.662Z,14.70
2022-10-14T00:09:17.035Z,14.83
2022-10-14T00:11:45.437Z,15.83
2022-10-14T00:14:16.796Z,16.07
2022-10-14T00:16:46.842Z,16.07
2022-10-14T00:19:16.861Z,15.07
2022-10-14T00:21:47.160Z,15.20
2022-10-14T00:24:17.222Z,14.70
2022-10-14T00:26:45.989Z,14.77
2022-10-14T00:29:16.129Z,15.30
2022-10-14T00:31:44.351Z,14.60
2022-10-14T00:34:16.114Z,14.50
2022-10-14T00:36:45.839Z,14.03
2022-10-14T00:39:14.008Z,15.00
2022-10-14T00:41:42.610Z,14.37
2022-10-14T00:44:43.811Z,16.27
2022-10-14T00:47:12.408Z,16.07
2022-10-14T00:49:45.513Z,14.97
2022-10-14T00:52:18.207Z,13.97
2022-10-14T00:54:48.898Z,14.27
2022-10-14T00:57:17.900Z,13.77
2022-10-14T00:59:46.235Z,13.20
2022-10-14T01:02:14.442Z,14.40
2022-10-14T01:04:44.758Z,13.40
2022-10-14T01:07:25.732Z,12.17
2022-10-14T01:10:04.351Z,12.10
2022-10-14T01:12:43.852Z,11.77
2022-10-14T01:15:18.913Z,11.57
2022-10-14T01:17:56.938Z,11.10
2022-10-14T01:20:44.982Z,10.27
2022-10-14T01:23:37.559Z,10.50
2022-10-14T01:26:19.277Z,11.73
2022-10-14T01:28:58.433Z,10.03
2022-10-14T01:31:33.393Z,10.53
2022-10-14T01:34:04.874Z,10.27
2022-10-14T01:36:38.734Z,10.53
2022-10-14T01:39:15.022Z,10.87
2022-10-14T01:41:47.504Z,10.23
2022-10-14T01:44:18.363Z,10.47
2022-10-14T01:46:52.248Z,10.87
2022-10-14T01:49:26.593Z,9.60
2022-10-14T01:51:59.070Z,10.90
2022-10-14T01:54:32.681Z,11.53
2022-10-14T01:57:03.875Z,11.83
2022-10-14T01:59:35.555Z,10.87
2022-10-14T02:02:05.208Z,11.00
2022-10-14T02:04:33.446Z,11.63
2022-10-14T02:07:08.118Z,11.87
2022-10-14T02:09:46.072Z,11.10
2022-10-14T02:12:26.250Z,11.90
2022-10-14T02:15:03.933Z,10.83
2022-10-14T02:17:36.642Z,11.00
2022-10-14T02:20:12.089Z,11.03
2022-10-14T02:22:44.630Z,10.97
2022-10-14T02:25:18.242Z,11.13
2022-10-14T02:27:48.929Z,11.13
2022-10-14T02:30:18.781Z,12.43
2022-10-14T02:32:53.353Z,11.67
2022-10-14T02:35:25.081Z,12.33
2022-10-14T02:37:55.194Z,13.03
2022-10-14T02:40:28.299Z,12.30
2022-10-14T02:42:56.701Z,12.70
2022-10-14T02:45:26.737Z,14.00
2022-10-14T02:47:56.307Z,13.87
2022-10-14T02:50:24.675Z,14.17
2022-10-14T02:52:52.917Z,14.70
2022-10-14T02:55:21.125Z,14.67
2022-10-14T02:57:49.684Z,14.47
2022-10-14T03:00:18.301Z,15.13
2022-10-14T03:02:47.344Z,13.50
2022-10-14T03:05:17.401Z,14.60
2022-10-14T03:07:45.608Z,15.10
2022-10-14T03:10:13.835Z,14.63
2022-10-14T03:12:44.173Z,15.57
2022-10-14T03:15:12.542Z,15.17
2022-10-14T03:17:40.705Z,14.23
2022-10-14T03:20:10.180Z,15.50
2022-10-14T03:22:39.709Z,14.83
2022-10-14T03:25:09.071Z,14.43
2022-10-14T03:27:37.576Z,16.17
2022-10-14T03:30:06.768Z,15.17
2022-10-14T03:32:35.358Z,14.40
2022-10-14T03:35:04.199Z,14.80
2022-10-14T03:37:34.614Z,17.30
2022-10-14T03:43:49.490Z,14.80
2022-10-14T03:46:18.359Z,17.60
2022-10-14T03:48:46.527Z,16.73
2022-10-14T03:51:15.955Z,16.57
2022-10-14T03:53:44.229Z,15.43
2022-10-14T03:56:12.765Z,16.67
2022-10-14T03:59:38.174Z,15.73
2022-10-14T04:02:52.936Z,17.27
2022-10-14T04:05:22.604Z,15.17
2022-10-14T04:11:49.601Z,17.27
2022-10-14T04:17:25.358Z,16.27
2022-10-14T04:20:18.941Z,16.43
2022-10-14T04:22:56.280Z,16.53
2022-10-14T04:25:35.511Z,17.03
2022-10-14T04:31:02.852Z,15.60
2022-10-14T04:33:33.608Z,15.73
2022-10-14T04:36:04.989Z,16.00
2022-10-14T04:38:35.343Z,15.93
2022-10-14T04:41:03.558Z,14.70
2022-10-14T04:43:34.198Z,15.60
2022-10-14T04:46:02.772Z,15.00
2022-10-14T04:48:30.968Z,15.03
2022-10-14T04:51:00.647Z,16.00
2022-10-14T04:53:29.058Z,16.20
2022-10-14T04:55:58.761Z,14.40
2022-10-14T04:58:27.019Z,14.70
2022-10-14T05:00:56.109Z,13.67
2022-10-14T05:03:24.578Z,14.63
2022-10-14T05:05:52.857Z,13.63
2022-10-14T05:08:47.957Z,13.73
2022-10-14T05:11:25.784Z,14.90
2022-10-14T05:13:56.971Z,15.13
2022-10-14T05:16:25.449Z,15.83
2022-10-14T05:18:54.170Z,16.30
2022-10-14T05:21:54.144Z,16.23
2022-10-14T05:24:37.059Z,15.20
2022-10-14T05:30:23.015Z,15.03
2022-10-14T05:36:05.395Z,13.70
2022-10-14T05:49:00.335Z,11.50
2022-10-14T05:51:45.821Z,11.83
2022-10-14T05:54:14.190Z,12.20
2022-10-14T05:56:46.501Z,11.70
2022-10-14T05:59:14.753Z,11.87
2022-10-14T06:01:44.380Z,11.33
2022-10-14T06:04:20.660Z,10.80
2022-10-14T06:06:58.160Z,11.57
2022-10-14T06:09:33.321Z,12.43
2022-10-14T06:12:03.603Z,11.60
2022-10-14T06:14:31.855Z,10.87
2022-10-14T06:17:01.612Z,11.10
2022-10-14T06:19:33.580Z,12.73
2022-10-14T06:22:01.869Z,10.53
2022-10-14T06:24:49.520Z,10.47
2022-10-14T06:30:35.065Z,10.40
2022-10-14T06:33:04.707Z,10.37
2022-10-14T06:35:33.020Z,10.03
2022-10-14T06:38:01.277Z,8.93
2022-10-14T06:40:29.696Z,8.90
2022-10-14T06:42:59.587Z,8.77
2022-10-14T06:45:27.786Z,9.87
2022-10-14T06:47:56.180Z,8.33
2022-10-14T06:50:25.961Z,8.27
2022-10-14T06:52:54.157Z,8.83
2022-10-14T06:56:10.380Z,8.30
2022-10-14T06:58:58.205Z,8.27
2022-10-14T07:01:30.032Z,7.83
2022-10-14T07:03:59.371Z,8.00
2022-10-14T07:06:36.307Z,8.20
2022-10-14T07:09:15.865Z,8.67
2022-10-14T07:11:55.113Z,6.67
2022-10-14T07:24:57.164Z,5.53
2022-10-14T07:34:20.618Z,6.77
2022-10-14T07:40:25.065Z,6.77
2022-10-14T07:42:53.468Z,7.70
2022-10-14T07:45:21.835Z,6.93
2022-10-14T07:47:53.641Z,7.07
2022-10-14T07:50:23.170Z,6.57
2022-10-14T07:52:51.869Z,7.00
2022-10-14T07:55:36.061Z,11.47
2022-10-14T07:58:42.219Z,6.47
2022-10-14T08:01:16.326Z,6.50
2022-10-14T08:03:46.276Z,6.60
2022-10-14T08:06:15.086Z,6.33
2022-10-14T08:08:44.681Z,7.23
2022-10-14T08:11:17.539Z,6.70
2022-10-14T08:13:52.639Z,6.73
2022-10-14T08:16:24.814Z,6.93
2022-10-14T08:18:58.066Z,7.00
2022-10-14T08:21:36.673Z,7.60
2022-10-14T08:24:09.428Z,8.03
2022-10-14T08:26:51.580Z,6.40
2022-10-14T08:32:35.566Z,6.47
2022-10-14T08:45:43.930Z,5.80
2022-10-14T08:55:01.367Z,5.47
2022-10-14T08:57:33.639Z,5.43
2022-10-14T09:00:05.583Z,5.30
2022-10-14T09:03:04.665Z,4.20
2022-10-14T09:05:40.440Z,5.07
2022-10-14T09:08:15.927Z,5.20
2022-10-14T09:10:45.592Z,4.33
2022-10-14T09:13:26.767Z,4.47
2022-10-14T09:16:19.430Z,5.20
2022-10-14T09:18:56.709Z,4.10
2022-10-14T09:21:51.750Z,4.77
2022-10-14T09:24:24.572Z,4.43
2022-10-14T09:29:47.325Z,4.53
2022-10-14T09:32:26.904Z,4.50
2022-10-14T09:35:14.612Z,4.87
2022-10-14T09:37:56.439Z,5.00
2022-10-14T09:40:36.116Z,5.50
2022-10-14T09:43:27.177Z,5.47
2022-10-14T09:46:04.089Z,5.20
2022-10-14T09:48:38.859Z,5.43
2022-10-14T09:51:12.640Z,5.43
2022-10-14T09:53:54.519Z,5.43
2022-10-14T09:56:37.460Z,5.40
2022-10-14T09:59:25.304Z,5.57
2022-10-14T10:02:09.231Z,5.33
2022-10-14T10:04:47.644Z,6.37
2022-10-14T10:07:36.804Z,6.00
2022-10-14T10:13:57.314Z,6.67
2022-10-14T10:16:36.673Z,6.50
2022-10-14T10:19:53.122Z,6.60
2022-10-14T10:22:59.723Z,6.27
2022-10-14T10:25:45.467Z,6.23
2022-10-14T10:28:21.919Z,6.27
2022-10-14T10:34:28.284Z,6.50
2022-10-14T10:37:05.406Z,6.33
2022-10-14T10:39:52.264Z,6.93
2022-10-14T10:42:39.532Z,7.20
2022-10-14T10:45:36.875Z,8.17
2022-10-14T10:48:24.681Z,9.50
2022-10-14T10:51:03.748Z,7.83
2022-10-14T10:53:51.510Z,7.37
2022-10-14T10:56:33.667Z,8.47
2022-10-14T10:59:55.903Z,7.97
2022-10-14T11:03:07.488Z,7.43
2022-10-14T11:09:40.432Z,8.17
2022-10-14T11:12:35.728Z,7.50
2022-10-14T11:15:30.947Z,7.53
2022-10-14T11:18:06.014Z,6.77
2022-10-14T11:24:49.673Z,6.03
2022-10-14T11:27:25.073Z,6.43
2022-10-14T11:33:23.039Z,5.77
2022-10-14T11:36:00.562Z,5.17
2022-10-14T11:39:16.328Z,5.27
2022-10-14T11:42:20.829Z,4.60
2022-10-14T11:44:59.429Z,4.33
2022-10-14T11:47:33.645Z,22.60
2022-10-14T11:50:06.337Z,4.90
2022-10-14T11:52:46.565Z,4.67
2022-10-14T11:55:20.492Z,4.40
2022-10-14T11:57:58.956Z,4.80
2022-10-14T12:00:44.333Z,4.67
2022-10-14T12:03:22.357Z,5.00
2022-10-14T12:06:01.546Z,5.10
2022-10-14T12:08:35.948Z,5.10
2022-10-14T12:11:08.904Z,4.80
2022-10-14T12:13:43.523Z,4.77
2022-10-14T12:16:26.466Z,5.27
2022-10-14T12:18:58.173Z,4.83
2022-10-14T12:21:37.201Z,4.73
2022-10-14T12:24:15.335Z,4.93
2022-10-14T12:26:55.662Z,4.77
2022-10-14T12:29:28.957Z,4.70
2022-10-14T12:32:23.005Z,4.70
2022-10-14T12:34:54.939Z,4.83
2022-10-14T12:37:43.159Z,5.03
2022-10-14T12:40:29.788Z,5.60
2022-10-14T12:43:20.439Z,5.60
2022-10-14T12:46:06.784Z,4.97
2022-10-14T12:48:39.960Z,5.27
2022-10-14T12:51:13.365Z,5.43
2022-10-14T12:53:52.572Z,5.27
2022-10-14T12:56:36.417Z,5.27
2022-10-14T12:59:07.002Z,5.63
2022-10-14T13:01:44.319Z,5.73
2022-10-14T13:04:22.592Z,5.57
2022-10-14T13:07:46.186Z,5.73
2022-10-14T13:10:50.709Z,5.50
2022-10-14T13:17:01.245Z,5.83
2022-10-14T13:19:48.830Z,5.30
2022-10-14T13:22:46.951Z,5.97
2022-10-14T13:25:36.775Z,9.20
2022-10-14T13:28:32.261Z,5.53
2022-10-14T13:31:30.763Z,5.57
2022-10-14T13:34:14.161Z,5.57
2022-10-14T13:36:53.020Z,5.03
2022-10-14T13:39:21.436Z,5.53
2022-10-14T13:49:29.102Z,6.70
2022-10-14T13:55:54.054Z,6.20
2022-10-14T14:01:09.038Z,5.10
2022-10-14T14:03:40.250Z,8.00
2022-10-14T14:06:18.997Z,5.53
2022-10-14T14:08:57.529Z,5.73
2022-10-14T14:11:27.405Z,5.60
2022-10-14T14:14:03.805Z,5.30
2022-10-14T14:16:35.422Z,23.80
2022-10-14T14:19:22.340Z,5.75
2022-10-14T14:22:08.636Z,5.77
2022-10-14T14:24:39.509Z,5.70
2022-10-14T14:27:16.642Z,5.70
2022-10-14T14:30:18.245Z,5.60
2022-10-14T14:33:24.187Z,5.17
2022-10-14T14:36:18.069Z,5.30
2022-10-14T14:42:32.404Z,5.60
2022-10-14T14:45:05.427Z,4.77
2022-10-14T14:47:45.532Z,5.20
2022-10-14T14:50:30.553Z,4.87
2022-10-14T14:53:19.137Z,5.80
2022-10-14T14:56:03.475Z,5.80
2022-10-14T14:58:44.224Z,5.47
2022-10-14T15:01:28.384Z,6.23
2022-10-14T15:11:05.773Z,37.17
2022-10-14T15:13:48.818Z,4.70
2022-10-14T15:16:42.192Z,4.73
2022-10-14T15:19:45.878Z,4.90
2022-10-14T15:22:33.263Z,4.53
2022-10-14T15:25:07.689Z,4.83
2022-10-14T15:27:50.572Z,5.30
2022-10-14T15:30:34.946Z,5.00
2022-10-14T15:33:38.350Z,4.70
2022-10-14T15:36:54.741Z,17.23
2022-10-14T15:39:28.282Z,5.10
2022-10-14T15:41:56.978Z,14.00
2022-10-14T15:44:27.946Z,6.50
2022-10-14T15:47:35.169Z,7.00
2022-10-14T15:53:11.029Z,7.73
2022-10-14T15:55:41.482Z,7.80
2022-10-14T15:58:11.166Z,7.87
2022-10-14T16:00:40.850Z,8.57
2022-10-14T16:03:14.837Z,10.07
2022-10-14T16:05:44.405Z,10.50
2022-10-14T16:08:24.998Z,9.70
2022-10-14T16:11:17.758Z,8.90
2022-10-14T16:13:50.782Z,9.23
2022-10-14T16:16:31.537Z,11.03
2022-10-14T16:19:10.212Z,9.23
2022-10-14T16:21:46.374Z,8.70
2022-10-14T16:24:23.396Z,8.43
2022-10-14T16:26:53.111Z,8.70
2022-10-14T16:29:21.683Z,8.27
2022-10-14T16:31:52.498Z,8.33
2022-10-14T16:34:22.757Z,8.00
2022-10-14T16:36:53.639Z,8.37
2022-10-14T16:39:25.619Z,8.63
2022-10-14T16:41:56.274Z,8.23
2022-10-14T16:44:32.774Z,7.67
2022-10-14T16:47:22.929Z,8.67
2022-10-14T16:56:06.634Z,7.88
2022-10-14T16:58:53.962Z,7.20
2022-10-14T17:01:26.443Z,5.70
2022-10-14T17:04:05.004Z,6.93
2022-10-14T17:10:07.526Z,5.30
2022-10-14T17:12:38.922Z,5.20
2022-10-14T17:18:52.621Z,4.80
2022-10-14T17:21:23.541Z,4.77
2022-10-14T17:23:53.822Z,6.70
2022-10-14T17:26:22.353Z,6.00
2022-10-14T17:28:50.861Z,5.83
2022-10-14T17:31:22.758Z,4.90
2022-10-14T17:33:52.639Z,6.10
2022-10-14T17:36:24.702Z,6.10
2022-10-14T17:38:53.203Z,7.20
2022-10-14T17:41:46.098Z,5.47
2022-10-14T17:44:14.381Z,4.47
2022-10-14T17:46:53.856Z,5.10
2022-10-14T17:49:44.289Z,3.97
2022-10-14T17:52:14.319Z,4.57
2022-10-14T17:54:45.870Z,4.70
2022-10-14T17:57:18.555Z,4.70
2022-10-14T17:59:48.058Z,4.83
2022-10-14T18:02:19.735Z,4.83
2022-10-14T18:05:21.647Z,4.50
2022-10-14T18:07:52.748Z,4.50
2022-10-14T18:10:21.009Z,4.73
2022-10-14T18:12:51.037Z,4.83
2022-10-14T18:15:21.326Z,4.60
2022-10-14T18:17:49.875Z,4.37
2022-10-14T18:20:18.362Z,5.80
2022-10-14T18:25:16.840Z,5.90
2022-10-14T18:27:52.652Z,7.30
2022-10-14T18:30:20.968Z,6.80
2022-10-14T18:32:49.195Z,5.30
2022-10-14T18:35:17.550Z,6.23
2022-10-14T18:37:54.321Z,6.47
2022-10-14T18:40:25.401Z,6.03
2022-10-14T18:43:03.177Z,6.33
2022-10-14T18:45:55.010Z,6.10
2022-10-14T18:48:24.959Z,6.30
2022-10-14T18:50:58.861Z,7.10
2022-10-14T18:53:28.277Z,6.60
2022-10-14T19:02:31.054Z,6.20
2022-10-14T19:05:02.559Z,6.23
2022-10-14T19:07:41.859Z,6.30
2022-10-14T19:10:17.542Z,5.67
2022-10-14T19:12:48.265Z,5.07
2022-10-14T19:15:19.893Z,5.10
2022-10-14T19:17:54.451Z,5.33
2022-10-14T19:20:23.039Z,6.20
2022-10-14T19:22:56.512Z,6.30
2022-10-14T19:25:27.808Z,6.27
2022-10-14T19:28:02.951Z,8.53
2022-10-14T19:30:59.064Z,7.10
2022-10-14T19:33:51.782Z,5.90
2022-10-14T19:36:24.827Z,6.07
2022-10-14T19:38:57.871Z,6.23
2022-10-14T19:41:27.654Z,7.40
2022-10-14T19:46:47.985Z,6.37
2022-10-14T19:49:42.744Z,6.60
2022-10-14T19:52:13.194Z,6.90
2022-10-14T19:54:43.014Z,6.63
2022-10-14T19:57:11.355Z,5.50
2022-10-14T19:59:41.419Z,6.40
2022-10-14T20:02:10.105Z,6.13
2022-10-14T20:04:39.739Z,16.70
2022-10-14T20:07:09.945Z,7.93
2022-10-14T20:09:39.213Z,5.80
2022-10-14T20:12:09.128Z,6.90
2022-10-14T20:14:37.678Z,6.50
2022-10-14T20:17:11.594Z,5.97
2022-10-14T20:19:41.312Z,6.63
2022-10-14T20:22:09.591Z,5.83
2022-10-14T20:24:40.003Z,5.87
2022-10-14T20:27:11.831Z,6.50
2022-10-14T20:29:40.528Z,7.07
2022-10-14T20:32:09.191Z,6.33
2022-10-14T20:34:38.154Z,6.53
2022-10-14T20:37:11.574Z,6.50
2022-10-14T20:39:46.858Z,7.03
2022-10-14T20:42:15.804Z,6.53
2022-10-14T20:44:44.287Z,6.80
2022-10-14T20:47:12.637Z,6.50
2022-10-14T20:49:41.050Z,6.10
2022-10-14T20:52:11.363Z,6.23
2022-10-14T20:54:40.390Z,5.90
2022-10-14T20:57:08.747Z,6.17
2022-10-14T20:59:40.182Z,5.90
2022-10-14T21:02:15.071Z,13.37
2022-10-14T21:04:43.610Z,6.10
2022-10-14T21:07:13.404Z,6.70
2022-10-14T21:09:42.602Z,6.10
2022-10-14T21:12:48.795Z,7.10
2022-10-14T21:15:18.230Z,6.10
2022-10-14T21:17:49.334Z,5.83
2022-10-14T21:20:18.627Z,6.17
2022-10-14T21:22:48.334Z,6.47
2022-10-14T21:25:32.160Z,6.40
2022-10-14T21:28:06.947Z,5.93
2022-10-14T21:30:35.655Z,6.27
2022-10-14T21:33:04.011Z,6.00
2022-10-14T21:35:32.217Z,6.17
2022-10-14T21:38:02.005Z,6.27
2022-10-14T21:40:30.151Z,11.47
2022-10-14T21:42:58.317Z,7.03
2022-10-14T21:45:26.746Z,6.23
2022-10-14T21:48:04.544Z,5.83
2022-10-14T21:50:35.791Z,6.50
2022-10-14T21:53:10.308Z,6.93
2022-10-14T22:01:46.494Z,4.90
2022-10-14T22:04:17.270Z,5.83
2022-10-14T22:06:46.756Z,3.63
2022-10-14T22:09:20.688Z,3.90
2022-10-14T22:11:49.220Z,3.90
2022-10-14T22:14:18.764Z,6.13
2022-10-14T22:16:48.040Z,4.00
2022-10-14T22:19:17.169Z,4.00
2022-10-14T22:21:46.401Z,4.30
2022-10-14T22:24:16.155Z,4.87
2022-10-14T22:26:45.903Z,4.20
2022-10-14T22:29:15.938Z,5.17
2022-10-14T22:31:44.873Z,4.70
2022-10-14T22:34:16.459Z,4.30
2022-10-14T22:36:45.221Z,3.80
2022-10-14T22:39:17.135Z,3.60
2022-10-14T22:41:45.387Z,3.60
2022-10-14T22:44:15.586Z,4.20
2022-10-14T22:46:46.478Z,6.63
2022-10-14T22:49:19.827Z,2.83
2022-10-14T22:51:54.491Z,2.60
2022-10-14T22:54:27.306Z,2.60
2022-10-14T22:56:55.637Z,2.80
2022-10-14T22:59:23.840Z,2.60
2022-10-14T23:01:52.179Z,3.00
2022-10-14T23:04:20.731Z,3.00
2022-10-14T23:06:50.216Z,3.00
2022-10-14T23:09:19.068Z,2.93
2022-10-14T23:11:49.761Z,3.00
2022-10-14T23:14:18.110Z,3.30
2022-10-14T23:16:50.790Z,3.30
2022-10-14T23:19:24.663Z,3.17
2022-10-14T23:21:52.963Z,2.53
2022-10-14T23:24:21.664Z,2.50
2022-10-14T23:26:51.363Z,2.27
2022-10-14T23:29:19.669Z,2.30
2022-10-14T23:31:47.946Z,2.40
2022-10-14T23:34:16.627Z,2.27
2022-10-14T23:36:45.080Z,2.40
2022-10-14T23:39:17.686Z,2.10
2022-10-14T23:41:45.915Z,2.00
2022-10-14T23:44:15.773Z,1.73
2022-10-14T23:46:44.244Z,2.40
2022-10-14T23:49:25.595Z,2.10
2022-10-14T23:51:55.431Z,2.10
2022-10-14T23:54:23.979Z,2.23
2022-10-14T23:56:52.352Z,2.13
2022-10-14T23:59:22.055Z,2.30
